Hillje, Texas
Current Conditions -  °F | °C
As of 1:15 PM on Saturday 25 Oct 2014 (Local Time) from KARM Reporting Station
Clear Clear  
Wind Chill: 82°   Ceiling: Unl
Heat Index: 82°   Visibility: 10mi
Dew Point: 56°   Wind: 5mph
Humidity: 41%   Direction: 130°SE
Pressure: 30.15"   Gusts: NA
Location:  29.1916°N, 96.2212°W
Report Text: KARM 251815Z AUTO 13004KT 10SM CLR 28/14 A3015 RMK AO2 T02790136
Loading
Personal Weather Stations






























Interactive Weather Map
Tropical Storm Tracking
New forecast layout! Learn more

10-Day Weather Forecast

Advertisements
Track Severe Weather on mobile